Sharps Corner, South Dakota
Current Conditions -  °F | °C
As of 1:52 PM on Saturday 25 Oct 2014 (Local Time) from KIEN Reporting Station
Clear Clear  
Wind Chill: 69°   Ceiling: Unl
Heat Index: 69°   Visibility: 10mi
Dew Point: 39°   Wind: 5mph
Humidity: 33%   Direction: NA
Pressure: 30.06"   Gusts: NA
Location:  43.2863°N, 102.209°W
Report Text: KIEN 251952Z AUTO VRB04KT 10SM CLR 21/04 A3006 RMK AO2 SLP177 T02060039
Loading
Personal Weather Stations






























Interactive Weather Map
Tropical Storm Tracking
New forecast layout! Learn more

10-Day Weather Forecast

Advertisements
Track Severe Weather on mobile